createdAt,value
2022-08-11T00:01:16.404Z,41.35
2022-08-11T00:03:47.333Z,41.89
2022-08-11T00:06:24.230Z,42.63
2022-08-11T00:08:54.416Z,42.83
2022-08-11T00:11:24.081Z,42.97
2022-08-11T00:13:55.306Z,43.25
2022-08-11T00:16:25.863Z,43.34
2022-08-11T00:18:55.384Z,43.23
2022-08-11T00:22:01.989Z,42.85
2022-08-11T00:24:14.326Z,42.01
2022-08-11T00:26:48.129Z,42.08
2022-08-11T00:29:16.408Z,41.90
2022-08-11T00:31:47.002Z,41.39
2022-08-11T00:34:18.613Z,41.75
2022-08-11T00:36:51.376Z,42.86
2022-08-11T00:39:28.662Z,41.79
2022-08-11T00:42:11.901Z,42.58
2022-08-11T00:44:51.031Z,42.08
2022-08-11T00:47:28.092Z,41.22
2022-08-11T00:50:08.862Z,41.74
2022-08-11T00:53:00.684Z,42.25
2022-08-11T00:56:11.309Z,42.83
2022-08-11T00:59:35.213Z,42.49
2022-08-11T01:02:18.449Z,43.06
2022-08-11T01:05:15.882Z,42.92
2022-08-11T01:08:15.701Z,44.02
2022-08-11T01:11:10.280Z,43.27
2022-08-11T01:14:06.676Z,43.11
2022-08-11T01:16:59.537Z,43.49
2022-08-11T01:20:45.020Z,43.34
2022-08-11T01:23:19.965Z,44.06
2022-08-11T01:26:23.364Z,45.23
2022-08-11T01:29:26.041Z,45.39
2022-08-11T01:32:35.191Z,44.92
2022-08-11T01:35:35.892Z,45.57
2022-08-11T01:38:56.728Z,46.63
2022-08-11T01:42:18.398Z,46.30
2022-08-11T01:45:07.907Z,46.80
2022-08-11T01:47:54.442Z,46.63
2022-08-11T01:50:38.171Z,46.95
2022-08-11T01:53:16.784Z,47.29
2022-08-11T01:55:55.134Z,47.88
2022-08-11T01:58:44.274Z,47.15
2022-08-11T02:01:29.596Z,47.65
2022-08-11T02:04:07.447Z,48.18
2022-08-11T02:06:56.230Z,48.03
2022-08-11T02:10:35.114Z,48.48
2022-08-11T02:13:10.710Z,48.84
2022-08-11T02:15:46.947Z,49.25
2022-08-11T02:18:22.879Z,49.41
2022-08-11T02:21:14.741Z,49.62
2022-08-11T02:24:04.146Z,49.29
2022-08-11T02:26:41.831Z,49.94
2022-08-11T02:29:19.870Z,50.26
2022-08-11T02:32:29.569Z,49.58
2022-08-11T02:35:11.065Z,50.10
2022-08-11T02:37:47.954Z,50.02
2022-08-11T02:40:36.511Z,50.37
2022-08-11T02:43:12.079Z,50.08
2022-08-11T02:45:49.247Z,49.97
2022-08-11T02:48:55.929Z,50.27
2022-08-11T02:51:40.103Z,49.84
2022-08-11T02:54:16.098Z,50.78
2022-08-11T02:56:55.939Z,50.77
2022-08-11T02:59:53.415Z,51.07
2022-08-11T03:02:33.097Z,51.69
2022-08-11T03:05:09.150Z,51.88
2022-08-11T03:07:52.453Z,52.04
2022-08-11T03:10:24.909Z,51.90
2022-08-11T03:13:17.323Z,52.27
2022-08-11T03:16:10.854Z,52.89
2022-08-11T03:18:45.766Z,52.53
2022-08-11T03:21:22.013Z,51.71
2022-08-11T03:23:56.915Z,52.55
2022-08-11T03:26:31.670Z,52.40
2022-08-11T03:29:07.774Z,52.57
2022-08-11T03:31:42.635Z,53.01
2022-08-11T03:34:18.381Z,52.75
2022-08-11T03:37:16.171Z,53.31
2022-08-11T03:39:59.178Z,53.00
2022-08-11T03:42:40.705Z,53.60
2022-08-11T03:45:22.915Z,53.78
2022-08-11T03:48:07.114Z,53.89
2022-08-11T03:50:55.418Z,53.83
2022-08-11T03:53:49.074Z,53.98
2022-08-11T03:56:44.147Z,53.70
2022-08-11T03:59:35.046Z,53.68
2022-08-11T04:02:25.780Z,53.71
2022-08-11T04:05:28.187Z,53.99
2022-08-11T04:08:34.373Z,54.07
2022-08-11T04:11:37.920Z,54.69
2022-08-11T04:15:01.769Z,55.12
2022-08-11T04:17:57.659Z,55.32
2022-08-11T04:20:58.316Z,55.21
2022-08-11T04:24:35.794Z,55.03
2022-08-11T04:26:53.198Z,54.91
2022-08-11T04:30:03.518Z,55.37
2022-08-11T04:32:43.036Z,54.98
2022-08-11T04:35:25.541Z,55.39
2022-08-11T04:38:16.300Z,55.60
2022-08-11T04:41:20.103Z,55.29
2022-08-11T04:44:47.337Z,54.57
2022-08-11T04:48:01.668Z,54.65
2022-08-11T04:51:08.782Z,54.99
2022-08-11T04:54:13.540Z,55.05
2022-08-11T04:57:02.430Z,55.28
2022-08-11T05:00:20.060Z,55.16
2022-08-11T05:03:24.540Z,54.99
2022-08-11T05:06:43.994Z,55.46
2022-08-11T05:09:35.928Z,55.39
2022-08-11T05:12:16.623Z,55.28
2022-08-11T05:15:08.221Z,55.34
2022-08-11T05:17:58.058Z,55.25
2022-08-11T05:20:45.305Z,55.31
2022-08-11T05:23:31.599Z,54.61
2022-08-11T05:26:47.981Z,54.70
2022-08-11T05:29:57.811Z,54.46
2022-08-11T05:32:48.652Z,54.63
2022-08-11T05:36:01.704Z,54.42
2022-08-11T05:38:36.983Z,54.30
2022-08-11T05:41:25.536Z,54.02
2022-08-11T05:44:19.869Z,54.43
2022-08-11T05:47:08.707Z,54.01
2022-08-11T05:49:55.275Z,54.30
2022-08-11T05:52:46.872Z,54.07
2022-08-11T05:55:34.997Z,53.68
2022-08-11T05:58:06.858Z,53.59
2022-08-11T06:00:43.340Z,53.24
2022-08-11T06:03:12.172Z,53.23
2022-08-11T06:05:43.481Z,52.94
2022-08-11T06:08:13.797Z,51.51
2022-08-11T06:10:44.257Z,50.28
2022-08-11T06:13:18.544Z,49.87
2022-08-11T06:15:48.486Z,49.91
2022-08-11T06:18:17.636Z,49.46
2022-08-11T06:20:48.759Z,48.63
2022-08-11T06:23:20.535Z,48.40
2022-08-11T06:25:49.596Z,48.15
2022-08-11T06:28:22.587Z,47.95
2022-08-11T06:30:51.460Z,48.09
2022-08-11T06:33:30.692Z,47.68
2022-08-11T06:36:04.845Z,47.75
2022-08-11T06:38:48.325Z,47.11
2022-08-11T06:41:34.405Z,46.62
2022-08-11T06:44:16.354Z,46.58
2022-08-11T06:46:48.567Z,46.51
2022-08-11T06:49:36.980Z,45.34
2022-08-11T06:52:07.635Z,45.64
2022-08-11T06:55:05.514Z,45.44
2022-08-11T06:57:54.148Z,45.46
2022-08-11T07:00:33.172Z,45.05
2022-08-11T07:03:08.748Z,44.44
2022-08-11T07:05:45.858Z,44.75
2022-08-11T07:08:59.517Z,44.22
2022-08-11T07:12:32.764Z,43.67
2022-08-11T07:15:22.196Z,43.44
2022-08-11T07:18:16.098Z,43.63
2022-08-11T07:21:02.962Z,43.67
2022-08-11T07:24:04.192Z,42.71
2022-08-11T07:26:51.848Z,42.74
2022-08-11T07:29:21.343Z,42.55
2022-08-11T07:31:53.947Z,42.46
2022-08-11T07:34:29.159Z,42.19
2022-08-11T07:36:58.774Z,42.36
2022-08-11T07:39:28.236Z,41.91
2022-08-11T07:41:59.452Z,41.50
2022-08-11T07:44:34.813Z,41.12
2022-08-11T07:47:47.686Z,41.43
2022-08-11T07:50:35.196Z,40.72
2022-08-11T07:53:05.181Z,39.96
2022-08-11T07:55:50.293Z,40.33
2022-08-11T07:58:44.937Z,39.66
2022-08-11T08:01:37.171Z,40.13
2022-08-11T08:04:24.609Z,39.18
2022-08-11T08:07:12.129Z,40.08
2022-08-11T08:09:58.390Z,38.83
2022-08-11T08:12:45.265Z,38.70
2022-08-11T08:15:32.597Z,37.99
2022-08-11T08:18:20.729Z,38.17
2022-08-11T08:20:51.437Z,38.11
2022-08-11T08:23:33.250Z,37.52
2022-08-11T08:26:03.475Z,37.95
2022-08-11T08:28:32.768Z,38.08
2022-08-11T08:31:00.467Z,38.06
2022-08-11T08:33:31.640Z,37.80
2022-08-11T08:36:12.674Z,37.46
2022-08-11T08:38:47.563Z,37.87
2022-08-11T08:41:20.684Z,37.22
2022-08-11T08:43:52.845Z,37.59
2022-08-11T08:46:27.422Z,38.06
2022-08-11T08:48:56.532Z,37.37
2022-08-11T08:51:58.536Z,37.32
2022-08-11T08:54:35.524Z,37.14
2022-08-11T08:57:05.139Z,36.42
2022-08-11T08:59:47.541Z,36.95
2022-08-11T09:02:34.328Z,36.71
2022-08-11T09:05:05.203Z,36.07
2022-08-11T09:07:39.152Z,35.91
2022-08-11T09:10:11.880Z,35.37
2022-08-11T09:12:42.280Z,35.29
2022-08-11T09:15:12.455Z,35.55
2022-08-11T09:17:43.183Z,34.33
2022-08-11T09:20:23.891Z,34.28
2022-08-11T09:24:08.843Z,34.61
2022-08-11T09:26:20.993Z,33.72
2022-08-11T09:28:50.150Z,33.72
2022-08-11T09:31:18.407Z,33.76
2022-08-11T09:33:53.133Z,33.98
2022-08-11T09:36:39.839Z,34.23
2022-08-11T09:39:31.246Z,34.06
2022-08-11T09:42:03.487Z,34.35
2022-08-11T09:44:48.942Z,34.21
2022-08-11T09:47:24.480Z,34.57
2022-08-11T09:49:54.712Z,34.49
2022-08-11T09:52:25.853Z,34.30
2022-08-11T09:54:54.514Z,33.38
2022-08-11T09:57:40.955Z,33.46
2022-08-11T10:00:13.572Z,33.70
2022-08-11T10:02:45.076Z,33.75
2022-08-11T10:05:33.287Z,33.56
2022-08-11T10:08:03.861Z,33.45
2022-08-11T10:10:36.907Z,33.58
2022-08-11T10:14:03.670Z,33.84
2022-08-11T10:16:00.107Z,33.54
2022-08-11T10:18:49.522Z,33.08
2022-08-11T10:21:28.174Z,32.95
2022-08-11T10:24:17.497Z,32.95
2022-08-11T10:26:54.415Z,33.18
2022-08-11T10:29:44.453Z,33.37
2022-08-11T10:32:52.167Z,32.99
2022-08-11T10:35:27.137Z,32.97
2022-08-11T10:38:07.414Z,32.96
2022-08-11T10:40:40.048Z,32.67
2022-08-11T10:43:13.553Z,32.38
2022-08-11T10:46:03.071Z,31.86
2022-08-11T10:48:33.005Z,31.71
2022-08-11T10:51:25.633Z,31.61
2022-08-11T10:54:24.351Z,31.28
2022-08-11T10:57:13.117Z,31.54
2022-08-11T10:59:42.765Z,30.98
2022-08-11T11:02:15.076Z,30.63
2022-08-11T11:04:58.988Z,31.00
2022-08-11T11:07:41.423Z,31.03
2022-08-11T11:10:12.578Z,30.54
2022-08-11T11:13:03.145Z,29.63
2022-08-11T11:15:50.217Z,29.88
2022-08-11T11:18:22.268Z,29.97
2022-08-11T11:20:55.618Z,30.34
2022-08-11T11:23:28.024Z,29.78
2022-08-11T11:26:27.456Z,30.10
2022-08-11T11:29:28.863Z,30.08
2022-08-11T11:32:17.942Z,29.09
2022-08-11T11:35:31.484Z,29.05
2022-08-11T11:38:04.398Z,29.77
2022-08-11T11:40:34.636Z,29.72
2022-08-11T11:43:03.734Z,29.86
2022-08-11T11:45:33.318Z,30.31
2022-08-11T11:48:02.074Z,30.48
2022-08-11T11:50:33.078Z,30.19
2022-08-11T11:53:04.727Z,30.44
2022-08-11T11:55:33.241Z,29.93
2022-08-11T11:58:21.085Z,29.55
2022-08-11T12:01:10.886Z,29.88
2022-08-11T12:03:40.772Z,29.37
2022-08-11T12:06:12.112Z,29.24
2022-08-11T12:08:40.195Z,29.30
2022-08-11T12:11:28.415Z,29.50
2022-08-11T12:13:59.712Z,29.07
2022-08-11T12:16:34.484Z,28.75
2022-08-11T12:19:06.389Z,28.94
2022-08-11T12:21:36.539Z,28.39
2022-08-11T12:24:23.266Z,28.79
2022-08-11T12:27:17.867Z,28.40
2022-08-11T12:29:54.517Z,28.86
2022-08-11T12:32:27.358Z,28.59
2022-08-11T12:34:57.803Z,28.37
2022-08-11T12:37:31.237Z,28.04
2022-08-11T12:40:43.227Z,28.27
2022-08-11T12:43:38.029Z,27.62
2022-08-11T12:46:12.004Z,27.21
2022-08-11T12:49:04.676Z,27.77
2022-08-11T12:52:13.965Z,27.45
2022-08-11T12:54:51.756Z,27.50
2022-08-11T12:57:44.404Z,27.02
2022-08-11T13:00:31.294Z,27.10
2022-08-11T13:03:17.928Z,27.13
2022-08-11T13:05:49.546Z,26.81
2022-08-11T13:08:18.700Z,27.36
2022-08-11T13:11:20.042Z,26.88
2022-08-11T13:13:55.408Z,28.01
2022-08-11T13:16:27.662Z,27.20
2022-08-11T13:18:57.348Z,27.73
2022-08-11T13:21:28.070Z,27.02
2022-08-11T13:24:00.872Z,27.08
2022-08-11T13:26:48.561Z,26.58
2022-08-11T13:29:26.282Z,27.46
2022-08-11T13:31:56.125Z,27.18
2022-08-11T13:34:26.812Z,26.72
2022-08-11T13:36:59.308Z,27.40
2022-08-11T13:39:29.479Z,27.59
2022-08-11T13:41:59.491Z,27.31
2022-08-11T13:44:29.898Z,26.21
2022-08-11T13:47:01.363Z,26.36
2022-08-11T13:49:31.339Z,26.67
2022-08-11T13:52:01.289Z,27.03
2022-08-11T13:54:33.181Z,26.88
2022-08-11T13:57:08.163Z,27.19
2022-08-11T13:59:52.303Z,26.36
2022-08-11T14:02:29.042Z,26.41
2022-08-11T14:05:00.236Z,26.57
2022-08-11T14:07:35.817Z,26.44
2022-08-11T14:10:05.517Z,26.79
2022-08-11T14:12:53.319Z,26.58
2022-08-11T14:15:25.254Z,25.94
2022-08-11T14:17:57.261Z,26.51
2022-08-11T14:20:45.897Z,26.21
2022-08-11T14:23:15.758Z,26.59
2022-08-11T14:26:04.752Z,26.55
2022-08-11T14:28:40.298Z,26.09
2022-08-11T14:31:10.291Z,26.67
2022-08-11T14:34:00.409Z,25.80
2022-08-11T14:36:29.724Z,25.81
2022-08-11T14:38:59.774Z,26.59
2022-08-11T14:42:11.893Z,26.50
2022-08-11T14:44:54.198Z,25.67
2022-08-11T14:47:25.441Z,26.06
2022-08-11T14:50:09.416Z,25.24
2022-08-11T14:52:44.627Z,25.41
2022-08-11T14:55:32.306Z,25.22
2022-08-11T14:58:01.980Z,25.51
2022-08-11T15:00:30.938Z,25.57
2022-08-11T15:03:12.272Z,26.13
2022-08-11T15:05:56.377Z,25.91
2022-08-11T15:08:42.715Z,25.35
2022-08-11T15:11:27.823Z,25.53
2022-08-11T15:13:57.197Z,25.29
2022-08-11T15:16:43.557Z,25.37
2022-08-11T15:19:13.103Z,25.97
2022-08-11T15:21:59.004Z,24.89
2022-08-11T15:24:28.001Z,24.79
2022-08-11T15:27:21.816Z,25.09
2022-08-11T15:30:09.795Z,24.84
2022-08-11T15:33:04.949Z,24.76
2022-08-11T15:35:53.583Z,25.57
2022-08-11T15:38:23.243Z,25.10
2022-08-11T15:41:13.831Z,24.75
2022-08-11T15:44:04.151Z,24.99
2022-08-11T15:46:34.999Z,24.73
2022-08-11T15:49:09.696Z,24.21
2022-08-11T15:51:41.030Z,24.75
2022-08-11T15:54:12.675Z,24.52
2022-08-11T15:56:45.136Z,24.44
2022-08-11T15:59:43.150Z,24.09
2022-08-11T16:02:32.531Z,24.33
2022-08-11T16:05:04.153Z,24.42
2022-08-11T16:07:38.476Z,24.89
2022-08-11T16:10:15.609Z,24.35
2022-08-11T16:13:20.275Z,24.82
2022-08-11T16:16:09.851Z,24.47
2022-08-11T16:18:47.113Z,24.62
2022-08-11T16:21:34.371Z,24.62
2022-08-11T16:24:08.668Z,23.83
2022-08-11T16:27:08.156Z,23.95
2022-08-11T16:29:43.903Z,23.96
2022-08-11T16:32:19.155Z,23.98
2022-08-11T16:35:07.272Z,24.69
2022-08-11T16:37:54.144Z,24.28
2022-08-11T16:40:23.964Z,24.78
2022-08-11T16:43:11.767Z,24.31
2022-08-11T16:45:59.005Z,24.69
2022-08-11T16:48:36.001Z,25.13
2022-08-11T16:51:06.740Z,25.14
2022-08-11T16:54:00.247Z,24.85
2022-08-11T16:56:26.246Z,25.11
2022-08-11T16:59:14.688Z,24.95
2022-08-11T17:01:46.008Z,25.39
2022-08-11T17:04:39.182Z,25.43
2022-08-11T17:07:40.264Z,26.09
2022-08-11T17:10:51.008Z,26.60
2022-08-11T17:13:27.115Z,26.57
2022-08-11T17:16:12.597Z,26.54
2022-08-11T17:18:51.420Z,26.03
2022-08-11T17:21:26.238Z,26.08
2022-08-11T17:23:57.101Z,26.17
2022-08-11T17:26:51.501Z,25.29
2022-08-11T17:29:22.938Z,25.44
2022-08-11T17:32:09.118Z,26.14
2022-08-11T17:34:56.399Z,26.27
2022-08-11T17:37:26.062Z,25.16
2022-08-11T17:39:56.230Z,25.74
2022-08-11T17:42:47.278Z,26.32
2022-08-11T17:45:34.178Z,25.81
2022-08-11T17:48:19.904Z,25.98
2022-08-11T17:50:49.356Z,25.90
2022-08-11T17:53:36.815Z,25.71
2022-08-11T17:56:28.902Z,25.85
2022-08-11T17:59:16.518Z,26.44
2022-08-11T18:01:45.534Z,26.79
2022-08-11T18:04:19.444Z,26.22
2022-08-11T18:06:48.617Z,26.30
2022-08-11T18:09:38.578Z,26.85
2022-08-11T18:12:26.384Z,26.80
2022-08-11T18:15:13.641Z,27.12
2022-08-11T18:17:59.770Z,27.24
2022-08-11T18:20:45.898Z,27.56
2022-08-11T18:23:41.708Z,27.89
2022-08-11T18:26:37.518Z,27.57
2022-08-11T18:29:25.729Z,27.38
2022-08-11T18:32:21.949Z,28.13
2022-08-11T18:35:11.019Z,28.35
2022-08-11T18:38:03.743Z,28.18
2022-08-11T18:40:50.506Z,28.15
2022-08-11T18:43:39.736Z,29.20
2022-08-11T18:46:27.588Z,29.45
2022-08-11T18:49:19.431Z,29.48
2022-08-11T18:52:07.125Z,30.17
2022-08-11T18:54:55.275Z,30.39
2022-08-11T18:57:50.056Z,30.58
2022-08-11T19:00:44.803Z,30.78
2022-08-11T19:03:43.394Z,30.64
2022-08-11T19:06:39.724Z,30.92
2022-08-11T19:09:28.646Z,31.59
2022-08-11T19:12:16.849Z,31.81
2022-08-11T19:15:04.042Z,32.04
2022-08-11T19:17:54.023Z,32.69
2022-08-11T19:20:41.745Z,32.60
2022-08-11T19:23:29.631Z,32.65
2022-08-11T19:26:16.394Z,32.46
2022-08-11T19:29:06.650Z,33.15
2022-08-11T19:31:52.788Z,33.63
2022-08-11T19:34:42.086Z,33.86
2022-08-11T19:37:29.942Z,33.82
2022-08-11T19:40:19.998Z,34.18
2022-08-11T19:43:14.930Z,34.25
2022-08-11T19:46:15.104Z,34.32
2022-08-11T19:49:02.390Z,34.76
2022-08-11T19:51:53.457Z,34.67
2022-08-11T19:54:42.856Z,34.51
2022-08-11T19:57:29.109Z,34.77
2022-08-11T20:03:00.725Z,34.94
2022-08-11T20:05:55.299Z,35.37
2022-08-11T20:08:48.520Z,35.33
2022-08-11T20:11:36.154Z,35.61
2022-08-11T20:14:23.419Z,35.84
2022-08-11T20:17:10.656Z,35.75
2022-08-11T20:19:57.487Z,36.24
2022-08-11T20:22:45.228Z,36.64
2022-08-11T20:25:33.401Z,36.85
2022-08-11T20:28:20.972Z,36.56
2022-08-11T20:31:07.288Z,36.74
2022-08-11T20:33:53.095Z,36.91
2022-08-11T20:36:38.864Z,37.03
2022-08-11T20:39:25.680Z,36.98
2022-08-11T20:42:14.287Z,37.55
2022-08-11T20:45:01.150Z,37.51
2022-08-11T20:47:56.155Z,37.17
2022-08-11T20:50:46.003Z,37.94
2022-08-11T20:53:36.070Z,37.49
2022-08-11T20:56:28.877Z,37.90
2022-08-11T20:59:21.587Z,38.29
2022-08-11T21:02:10.554Z,38.12
2022-08-11T21:05:00.326Z,38.41
2022-08-11T21:07:57.088Z,38.91
2022-08-11T21:10:46.913Z,39.06
2022-08-11T21:13:34.382Z,38.72
2022-08-11T21:16:27.211Z,38.95
2022-08-11T21:20:00.681Z,38.61
2022-08-11T21:22:28.074Z,38.75
2022-08-11T21:25:15.973Z,38.97
2022-08-11T21:28:03.539Z,38.38
2022-08-11T21:30:51.701Z,38.94
2022-08-11T21:33:41.258Z,38.84
2022-08-11T21:36:28.625Z,39.06
2022-08-11T21:39:14.373Z,38.75
2022-08-11T21:42:00.202Z,39.00
2022-08-11T21:44:46.353Z,39.00
2022-08-11T21:47:42.786Z,39.05
2022-08-11T21:50:30.806Z,39.02
2022-08-11T21:53:17.099Z,39.27
2022-08-11T21:56:03.337Z,39.30
2022-08-11T21:58:48.996Z,39.05
2022-08-11T22:01:34.871Z,38.49
2022-08-11T22:04:21.672Z,38.83
2022-08-11T22:07:09.224Z,39.34
2022-08-11T22:09:55.184Z,39.23
2022-08-11T22:12:44.749Z,39.75
2022-08-11T22:15:31.470Z,39.58
2022-08-11T22:18:16.658Z,40.48
2022-08-11T22:21:03.488Z,40.53
2022-08-11T22:23:53.164Z,40.86
2022-08-11T22:26:41.198Z,40.65
2022-08-11T22:29:49.975Z,40.03
2022-08-11T22:32:33.860Z,39.67
2022-08-11T22:35:21.785Z,40.54
2022-08-11T22:38:07.840Z,40.52
2022-08-11T22:40:55.331Z,39.74
2022-08-11T22:43:40.573Z,39.04
2022-08-11T22:46:26.746Z,39.11
2022-08-11T22:49:13.987Z,39.09
2022-08-11T22:52:01.225Z,39.11
2022-08-11T22:54:47.923Z,39.40
2022-08-11T22:57:34.793Z,40.11
2022-08-11T23:00:20.583Z,41.12
2022-08-11T23:03:07.244Z,40.87
2022-08-11T23:05:57.150Z,40.27
2022-08-11T23:08:42.815Z,40.07
2022-08-11T23:11:55.309Z,39.86
2022-08-11T23:14:36.053Z,40.71
2022-08-11T23:17:21.295Z,41.40
2022-08-11T23:20:28.835Z,42.22
2022-08-11T23:23:13.834Z,42.77
2022-08-11T23:26:00.709Z,43.31
2022-08-11T23:28:47.865Z,43.53
2022-08-11T23:31:43.621Z,43.94
2022-08-11T23:35:02.937Z,44.43
2022-08-11T23:37:44.776Z,45.09
2022-08-11T23:40:29.964Z,45.22
2022-08-11T23:43:16.629Z,45.29
2022-08-11T23:46:01.762Z,46.04
2022-08-11T23:48:49.426Z,45.54
2022-08-11T23:51:37.861Z,46.14
2022-08-11T23:54:27.197Z,46.36
2022-08-11T23:57:13.428Z,46.41
2022-08-11T23:59:58.693Z,46.53
